KPWTKCLM

Guest
Details From KPWT - Bremerton National
To KCLM - William R Fairchild Intl
Flight Number -
Tags Routegen
Created
Modified
Stats Distance 49 nm / 90 km
Max Altitude 0 ft / 0 m
Waypoints 2
Social Downloads 4
Likes 0
Share VATSIM

Download

Looking for another format? Having issues loading an existing format? Contact us
Advertisement - Login to hide

Notes

None

Route

KPWT KCLM

ID Type Via Altitude Latitude Longitude Leg Dist Tot Dist Heading (true) Name
O KPWT APT - 0 ft / 0 m 47.48333˚ -122.77138˚ - 0 nm - -
O KCLM APT - 0 ft / 0 m 48.12104˚ -123.51152˚ 48 nm 48 nm 322° / 322° -

Altitude Profile

Advertisement - Login to hide

KPWT

Details ICAO KPWT (PWT)
Name Bremerton National
Region United States
Timezone America/Los_Angeles (UTC-8.0)
Stats Elevation 444 ft / 135 m (AMSL)
Location 47.490240° -122.764815°
Runways 1
Magnetic Variation 15.775° E

METAR

KPWT 150756Z AUTO 24003KT 10SM CLR M01/M01 A3023 RMK AO2 SLP257 T10061006 400941011 FZRANO

Decode

TAF

TAF AMD KPWT 150616Z 1506/1606 00000KT 5SM BR SCT001 OVC150 TEMPO 1506/1509 1SM BR BKN001 OVC120 FM150900 10005KT 5SM BR OVC120 FM151300 18005KT P6SM SCT025 OVC040 FM151600 19006KT 5SM -RA OVC015 FM151800 19008KT P6SM -SHRA OVC015

Decode

Departure Runways

ID Width Length Bearing (true) Bearing (mag) Surface Threshold Offset Overrun Length
01 151 ft / 46 m 5,997 ft / 1,828 m 32.69° 16.91° Asphalt 0 ft / 0 m 0 ft / 0 m
19 151 ft / 46 m 5,997 ft / 1,828 m 212.70° 196.92° Asphalt 0 ft / 0 m 1,243 ft / 379 m

KCLM

Details ICAO KCLM (CLM)
Name WILLIAM R FAIRCHILD INTL
Region United States
Timezone America/Los_Angeles (UTC-8.0)
Stats Elevation 291 ft / 89 m (AMSL)
Location 48.120829° -123.500070°
Runways 2
Magnetic Variation 16.053° E

METAR

KCLM 150753Z AUTO 00000KT 7SM BKN070 03/03 A3020 RMK AO2 SLP228 T00280028 400831011 $

Decode

TAF

TAF KCLM 150520Z 1506/1606 VRB03KT 3SM BR OVC200 FM150800 VRB03KT P6SM OVC100 FM151100 23004KT P6SM OVC040 FM151300 23004KT P6SM -RA OVC025 FM151600 26007KT P6SM VCSH SCT025 BKN040

Decode

Destination Runways

ID Width Length Bearing (true) Bearing (mag) Surface Threshold Offset Overrun Length
08 151 ft / 46 m 6,353 ft / 1,936 m 104.61° 88.56° Asphalt 0 ft / 0 m 0 ft / 0 m
13 49 ft / 15 m 3,244 ft / 989 m 147.64° 131.59° Asphalt 0 ft / 0 m 0 ft / 0 m
26 151 ft / 46 m 6,353 ft / 1,936 m 284.63° 268.58° Asphalt 1,355 ft / 413 m 0 ft / 0 m
31 49 ft / 15 m 3,244 ft / 989 m 327.64° 311.59° Asphalt 0 ft / 0 m 0 ft / 0 m

Approach Navaids

Runway Type Ident Frequency Range Bearing (true) Bearing (mag) Slope Elevation
08 Localiser ICLM 108.90 MHz 18 nm / 33 km 104.64° 88.59° - 291 ft / 89 m (AMSL)
08 Glidescope ICLM 108.90 MHz 10 nm / 19 km 104.62° 88.57° 3.00° 281 ft / 86 m (AMSL)

Popular Alternatives